Time;durP1;ratioP1;P1;durP2;ratioP2;P2;SDS_P1;SDS_P2;PMS_P1;PMS_P2;Temp;Humidity;BMP_temperature;BMP_pressure;BME280_temperature;BME280_humidity;BME280_pressure;Samples;Min_cycle;Max_cycle;Signal;HPM_P1;HPM_P2
2022/06/05 00:01:03;;;;;;;9.88;6.85;;;;;;;23.35;66.81;99717.66;3139696;28;20059;-63
2022/06/05 00:02:53;;;;;;;12.80;6.85;;;;;;;23.36;66.56;99729.94;3139696;28;20522;-64
2022/06/05 00:04:36;;;;;;;13.57;7.03;;;;;;;23.38;66.63;99724.47;3139178;28;20056;-63
2022/06/05 00:06:15;;;;;;;11.77;6.97;;;;;;;23.39;66.33;99721.66;3139503;28;20540;-63
2022/06/05 00:07:55;;;;;;;14.27;7.05;;;;;;;23.34;66.70;99721.31;3139411;28;20632;-62
2022/06/05 00:09:38;;;;;;;8.88;6.80;;;;;;;23.26;67.17;99721.22;3138913;28;20550;-63
2022/06/05 00:11:12;;;;;;;15.25;6.85;;;;;;;23.17;67.45;99724.81;3130834;28;20586;-62
2022/06/05 00:12:55;;;;;;;12.05;6.25;;;;;;;23.10;68.14;99723.72;3140402;28;20135;-62
2022/06/05 00:14:28;;;;;;;12.27;7.05;;;;;;;23.05;68.01;99718.88;3140203;28;20060;-63
2022/06/05 00:15:59;;;;;;;11.40;6.78;;;;;;;23.03;67.86;99714.69;3140059;28;20052;-63
2022/06/05 00:17:32;;;;;;;10.23;6.55;;;;;;;23.03;68.14;99718.19;3140275;28;20052;-63
2022/06/05 00:19:04;;;;;;;10.57;6.18;;;;;;;23.01;68.06;99714.00;3140450;28;20067;-64
2022/06/05 00:20:36;;;;;;;14.60;7.72;;;;;;;23.03;67.90;99726.16;3140213;28;20495;-64
2022/06/05 00:22:09;;;;;;;11.32;6.25;;;;;;;23.04;67.61;99730.50;3140201;28;20056;-64
2022/06/05 00:23:42;;;;;;;13.40;7.03;;;;;;;23.03;67.75;99730.63;3140360;28;20057;-64
2022/06/05 00:25:15;;;;;;;16.52;7.20;;;;;;;22.96;68.11;99725.09;3142483;28;20053;-63
2022/06/05 00:26:56;;;;;;;11.45;6.65;;;;;;;22.94;68.21;99727.03;3142872;28;20585;-64
2022/06/05 00:28:39;;;;;;;18.30;7.47;;;;;;;22.95;67.94;99728.72;3142017;28;20453;-64
2022/06/05 00:30:17;;;;;;;13.45;7.03;;;;;;;22.90;68.14;99729.16;3139324;28;20052;-64
2022/06/05 00:32:00;;;;;;;14.02;7.15;;;;;;;22.94;67.93;99732.34;3144276;28;20868;-64
2022/06/05 00:33:40;;;;;;;10.90;6.73;;;;;;;22.96;67.65;99733.06;3140088;28;20056;-64
2022/06/05 00:35:16;;;;;;;18.17;8.30;;;;;;;22.94;67.21;99732.34;3139966;28;20393;-64
2022/06/05 00:37:02;;;;;;;20.02;7.32;;;;;;;22.87;67.19;99729.47;3142512;28;20068;-64
2022/06/05 00:38:42;;;;;;;11.02;7.45;;;;;;;22.89;67.26;99738.13;3140803;28;20131;-64
2022/06/05 00:40:33;;;;;;;12.75;8.00;;;;;;;22.86;66.88;99730.44;3141300;28;20503;-64
2022/06/05 00:42:09;;;;;;;12.70;7.72;;;;;;;22.87;66.85;99732.13;3137437;28;20675;-64
2022/06/05 00:43:43;;;;;;;14.93;8.02;;;;;;;22.86;67.00;99735.72;3142691;28;20525;-64
2022/06/05 00:45:16;;;;;;;11.27;7.78;;;;;;;22.83;67.02;99724.59;3142315;28;20525;-64
2022/06/05 00:46:51;;;;;;;13.30;6.73;;;;;;;22.82;67.17;99722.94;3142231;28;20055;-65
2022/06/05 00:48:29;;;;;;;15.45;7.93;;;;;;;22.79;67.30;99718.75;3142487;28;20723;-65
2022/06/05 00:50:06;;;;;;;16.25;7.55;;;;;;;22.77;67.21;99718.06;3142211;28;20055;-64
2022/06/05 00:51:38;;;;;;;15.13;7.90;;;;;;;22.72;67.39;99723.00;3142452;28;20044;-64
2022/06/05 00:53:12;;;;;;;16.42;8.30;;;;;;;22.67;67.30;99726.09;3142396;28;20133;-64
2022/06/05 00:54:44;;;;;;;;;;;;;;;22.62;67.27;99727.50;3142771;28;20534;-64
2022/06/05 00:56:17;;;;;;;13.50;8.13;;;;;;;22.57;67.30;99729.75;3142302;28;20693;-63
2022/06/05 00:57:49;;;;;;;12.10;8.77;;;;;;;22.54;67.80;99724.75;3141749;28;20056;-64
2022/06/05 00:59:23;;;;;;;11.13;8.02;;;;;;;22.51;67.85;99725.91;3142211;28;20514;-64
2022/06/05 01:00:59;;;;;;;12.35;8.20;;;;;;;22.46;67.96;99709.59;3141021;28;20592;-64
2022/06/05 01:02:31;;;;;;;18.20;8.82;;;;;;;22.45;68.11;99719.38;3141831;28;20072;-61
2022/06/05 01:04:04;;;;;;;14.07;8.85;;;;;;;22.39;68.18;99705.84;3142222;28;20083;-62
2022/06/05 01:05:36;;;;;;;13.10;8.67;;;;;;;22.42;68.43;99717.00;3142236;28;20604;-62
2022/06/05 01:07:09;;;;;;;14.93;7.85;;;;;;;22.41;68.81;99720.63;3142246;28;20060;-62
2022/06/05 01:08:41;;;;;;;13.82;8.32;;;;;;;22.40;68.56;99718.97;3142105;28;20375;-62
2022/06/05 01:10:15;;;;;;;16.88;8.32;;;;;;;22.39;68.47;99716.44;3142223;28;20062;-63
2022/06/05 01:12:00;;;;;;;17.45;7.85;;;;;;;22.43;68.80;99723.16;3142806;28;20504;-63
2022/06/05 01:13:43;;;;;;;10.30;7.47;;;;;;;22.42;68.95;99709.06;3134030;28;20048;-62
2022/06/05 01:15:24;;;;;;;10.32;6.57;;;;;;;22.37;69.08;99708.66;3136766;28;20087;-62
2022/06/05 01:17:01;;;;;;;10.00;5.97;;;;;;;22.30;68.98;99712.84;3137060;28;20049;-62
2022/06/05 01:18:40;;;;;;;19.42;7.32;;;;;;;22.37;68.80;99723.75;3137554;28;20164;-62
2022/06/05 01:20:26;;;;;;;10.90;6.20;;;;;;;22.37;68.58;99721.09;3137829;28;20060;-62
2022/06/05 01:22:15;;;;;;;10.05;5.93;;;;;;;22.39;68.62;99725.28;3137994;28;20049;-63
2022/06/05 01:24:06;;;;;;;8.68;6.53;;;;;;;22.39;68.44;99725.28;3137295;28;20059;-62
2022/06/05 01:26:01;;;;;;;13.25;7.03;;;;;;;22.38;68.77;99718.28;3131705;28;20048;-63
2022/06/05 01:27:38;;;;;;;11.48;6.57;;;;;;;22.38;69.07;99718.28;3133883;28;20118;-62
2022/06/05 01:29:19;;;;;;;13.32;6.85;;;;;;;22.32;68.92;99705.59;3137145;28;20052;-62
2022/06/05 01:31:07;;;;;;;12.23;6.75;;;;;;;22.35;68.78;99713.25;3140165;28;20601;-63
2022/06/05 01:32:43;;;;;;;12.40;6.53;;;;;;;22.30;69.41;99715.50;3139376;28;20646;-63
2022/06/05 01:34:23;;;;;;;18.63;7.82;;;;;;;22.28;69.62;99720.16;3137374;28;20160;-64
2022/06/05 01:36:05;;;;;;;16.13;7.85;;;;;;;22.24;69.76;99732.00;3135656;28;20048;-65
2022/06/05 01:37:42;;;;;;;13.13;7.68;;;;;;;22.21;70.10;99727.88;3136657;28;20603;-64
2022/06/05 01:39:25;;;;;;;13.07;7.75;;;;;;;22.20;70.09;99733.31;3136792;28;20158;-64
2022/06/05 01:41:03;;;;;;;18.55;8.32;;;;;;;22.16;70.12;99738.03;3137013;28;20200;-65
2022/06/05 01:42:46;;;;;;;14.60;8.43;;;;;;;22.11;69.99;99740.28;3136757;28;20067;-64
2022/06/05 01:44:27;;;;;;;13.43;8.18;;;;;;;22.10;69.79;99735.97;3130614;28;20548;-64
2022/06/05 01:46:22;;;;;;;12.75;7.82;;;;;;;22.06;69.67;99747.81;3132024;28;20049;-62
2022/06/05 01:47:58;;;;;;;11.93;8.00;;;;;;;22.03;69.58;99746.28;3133533;28;20066;-62
2022/06/05 01:49:39;;;;;;;12.95;8.63;;;;;;;21.99;69.65;99747.56;3136157;28;20102;-62
2022/06/05 01:51:21;;;;;;;19.50;9.18;;;;;;;21.89;69.70;99736.16;3137669;28;20065;-64
2022/06/05 01:53:00;;;;;;;16.25;8.57;;;;;;;21.89;69.31;99751.22;3137532;28;20852;-64
2022/06/05 01:54:42;;;;;;;16.63;8.30;;;;;;;21.79;68.99;99746.78;3135667;28;20131;-63
2022/06/05 01:56:22;;;;;;;14.50;8.52;;;;;;;21.71;69.10;99743.16;3137694;28;20060;-64
2022/06/05 01:57:58;;;;;;;16.27;8.45;;;;;;;21.62;68.69;99736.06;3137439;28;20110;-63
2022/06/05 01:59:40;;;;;;;13.10;8.10;;;;;;;21.57;68.64;99744.44;3132984;28;20058;-63
2022/06/05 02:01:18;;;;;;;13.88;8.07;;;;;;;21.48;68.75;99738.19;3135742;28;20074;-63
2022/06/05 02:03:06;;;;;;;12.27;7.40;;;;;;;21.51;68.83;99743.19;3129874;28;20576;-63
2022/06/05 02:04:43;;;;;;;11.88;7.38;;;;;;;21.49;68.71;99745.13;3135747;28;20084;-62
2022/06/05 02:06:20;;;;;;;12.07;7.40;;;;;;;21.46;68.85;99747.25;3135833;28;20623;-62
2022/06/05 02:07:58;;;;;;;11.95;6.95;;;;;;;21.43;68.82;99756.31;3136564;28;20052;-63
2022/06/05 02:09:34;;;;;;;11.98;7.60;;;;;;;21.33;68.70;99739.56;3136168;28;20130;-62
2022/06/05 02:11:14;;;;;;;9.90;6.55;;;;;;;21.33;69.25;99736.91;3136270;28;20044;-62
2022/06/05 02:12:53;;;;;;;11.80;6.72;;;;;;;21.26;69.27;99738.41;3136662;28;20502;-62
2022/06/05 02:14:26;;;;;;;9.02;6.32;;;;;;;21.21;69.62;99736.22;3136324;28;20057;-62
2022/06/05 02:15:59;;;;;;;15.63;7.18;;;;;;;21.20;69.67;99738.97;3136008;28;20495;-63
2022/06/05 02:17:32;;;;;;;10.87;7.23;;;;;;;21.13;69.67;99725.47;3136202;28;20450;-63
2022/06/05 02:19:08;;;;;;;11.10;7.00;;;;;;;21.20;69.56;99731.03;3136091;28;20913;-62
2022/06/05 02:20:42;;;;;;;11.80;7.10;;;;;;;21.13;69.78;99731.59;3136038;28;20484;-63
2022/06/05 02:22:21;;;;;;;10.43;7.72;;;;;;;21.17;70.11;99739.25;3136705;28;20055;-62
2022/06/05 02:23:54;;;;;;;13.55;6.78;;;;;;;21.15;70.46;99739.41;3136437;28;20520;-62
2022/06/05 02:25:28;;;;;;;11.63;6.85;;;;;;;21.12;70.49;99737.03;3136917;28;20106;-62
2022/06/05 02:27:04;;;;;;;12.43;6.85;;;;;;;21.12;70.56;99739.69;3135975;28;20096;-62
2022/06/05 02:28:39;;;;;;;12.30;7.28;;;;;;;21.12;70.88;99727.28;3136067;28;20735;-63
2022/06/05 02:30:12;;;;;;;10.48;6.38;;;;;;;21.16;70.28;99734.94;3130134;28;20066;-62
2022/06/05 02:32:11;;;;;;;16.02;7.63;;;;;;;21.11;70.87;99725.59;3141290;28;20056;-62
2022/06/05 02:33:52;;;;;;;14.63;7.68;;;;;;;21.13;70.84;99741.34;3133270;28;20048;-62
2022/06/05 02:35:34;;;;;;;11.00;7.18;;;;;;;21.09;71.54;99739.97;3135752;28;20427;-63
2022/06/05 02:37:18;;;;;;;11.63;6.75;;;;;;;21.03;71.51;99725.47;3135819;28;20136;-63
2022/06/05 02:38:57;;;;;;;;;;;;;;;21.01;71.48;99718.63;3136994;28;20045;-63
2022/06/05 02:40:35;;;;;;;10.18;7.30;;;;;;;21.01;71.69;99723.94;3136804;28;19931;-62
2022/06/05 02:42:18;;;;;;;11.07;7.20;;;;;;;21.02;71.51;99721.13;3137085;28;20090;-63
2022/06/05 02:46:02;;;;;;;12.73;7.15;;;;;;;20.97;72.51;99717.22;3131355;28;20048;-62
2022/06/05 02:47:40;;;;;;;11.02;7.22;;;;;;;20.98;72.59;99716.25;3136008;28;20048;-63
2022/06/05 02:49:19;;;;;;;15.95;7.40;;;;;;;20.99;72.52;99724.06;3137057;28;20052;-62
2022/06/05 02:51:02;;;;;;;15.63;7.40;;;;;;;21.01;72.48;99729.22;3135116;28;20053;-62
2022/06/05 02:52:35;;;;;;;15.75;7.97;;;;;;;21.02;72.23;99737.00;3135587;28;20143;-62
2022/06/05 02:54:07;;;;;;;12.23;7.97;;;;;;;21.07;72.31;99742.75;3135998;28;20577;-63
2022/06/05 02:55:48;;;;;;;16.33;7.40;;;;;;;21.13;72.21;99747.47;3135869;28;20056;-63
2022/06/05 02:57:22;;;;;;;13.25;6.70;;;;;;;21.12;72.24;99737.88;3135767;28;20051;-63
2022/06/05 02:58:58;;;;;;;12.32;7.18;;;;;;;21.20;72.20;99746.94;3135565;28;20054;-63
2022/06/05 03:00:35;;;;;;;13.30;7.32;;;;;;;21.23;71.90;99744.84;3133583;28;20056;-63
2022/06/05 03:03:57;;;;;;;11.25;7.55;;;;;;;21.27;72.02;99746.25;3131769;28;20044;-63
2022/06/05 03:05:29;;;;;;;17.05;8.13;;;;;;;21.29;71.97;99744.28;3137382;28;20060;-63
2022/06/05 03:07:07;;;;;;;12.52;6.95;;;;;;;21.30;72.04;99747.78;3141192;28;20127;-63
2022/06/05 03:08:42;;;;;;;9.55;7.30;;;;;;;21.29;72.28;99748.75;3130428;28;20513;-63
2022/06/05 03:10:15;;;;;;;16.23;7.80;;;;;;;21.31;72.19;99746.78;3130322;28;20499;-62
2022/06/05 03:11:47;;;;;;;11.48;7.80;;;;;;;21.32;72.19;99751.09;3135868;28;20117;-62
2022/06/05 03:13:19;;;;;;;15.98;8.15;;;;;;;21.27;72.60;99740.13;3136135;28;20052;-62
2022/06/05 03:14:56;;;;;;;11.98;8.60;;;;;;;21.24;73.01;99743.03;3140109;28;20068;-62
2022/06/05 03:16:29;;;;;;;12.82;8.43;;;;;;;21.13;73.11;99728.13;3138435;28;20063;-61
2022/06/05 03:18:04;;;;;;;15.90;8.55;;;;;;;21.08;73.47;99722.38;3140627;28;20528;-62
2022/06/05 03:19:36;;;;;;;13.93;7.93;;;;;;;21.09;73.56;99726.72;3140403;28;20055;-62
2022/06/05 03:21:09;;;;;;;11.82;8.43;;;;;;;21.06;73.70;99726.97;3140554;28;20091;-63
2022/06/05 03:22:41;;;;;;;18.20;8.90;;;;;;;21.06;73.63;99726.97;3140641;28;20056;-62
2022/06/05 03:24:14;;;;;;;12.00;8.32;;;;;;;21.03;73.80;99736.06;3140476;28;20559;-61
2022/06/05 03:25:46;;;;;;;10.90;8.02;;;;;;;21.06;73.76;99741.06;3140479;28;20048;-62
2022/06/05 03:27:20;;;;;;;12.07;7.32;;;;;;;21.07;73.69;99748.03;3140450;28;20183;-62
2022/06/05 03:28:52;;;;;;;13.52;8.65;;;;;;;21.08;73.68;99748.88;3140496;28;20659;-62
2022/06/05 03:30:26;;;;;;;20.17;8.38;;;;;;;21.08;73.41;99756.81;3140293;28;20555;-62
2022/06/05 03:31:58;;;;;;;10.35;7.45;;;;;;;21.12;73.28;99756.41;3142665;28;20063;-62
2022/06/05 03:33:31;;;;;;;14.90;7.53;;;;;;;21.13;73.04;99760.72;3140364;28;20066;-62
2022/06/05 03:35:04;;;;;;;12.52;7.30;;;;;;;21.17;72.38;99752.50;3140551;28;20056;-63
2022/06/05 03:36:36;;;;;;;8.82;7.65;;;;;;;21.19;72.11;99747.91;3140091;28;20052;-62
2022/06/05 03:38:08;;;;;;;14.38;7.38;;;;;;;21.22;72.35;99752.94;3140428;28;20064;-63
2022/06/05 03:39:41;;;;;;;;;;;;;;;21.21;71.84;99752.09;3140974;28;20139;-63
2022/06/05 03:41:16;;;;;;;11.25;7.28;;;;;;;21.17;71.85;99734.78;3101304;28;19932;-61
2022/06/05 03:42:49;;;;;;;14.13;7.47;;;;;;;21.28;71.50;99741.78;3140369;28;20495;-62
2022/06/05 03:44:21;;;;;;;17.00;7.00;;;;;;;21.25;71.70;99732.28;3140383;28;20048;-63
2022/06/05 03:46:02;;;;;;;13.90;7.22;;;;;;;21.36;71.30;99728.72;3140133;28;20091;-63
2022/06/05 03:47:34;;;;;;;16.90;7.25;;;;;;;21.40;71.18;99723.97;3140160;28;20518;-63
2022/06/05 03:49:06;;;;;;;14.93;6.57;;;;;;;21.40;71.36;99722.16;3140137;28;20497;-63
2022/06/05 03:50:42;;;;;;;13.07;7.13;;;;;;;21.42;71.19;99722.03;3140383;28;20797;-63
2022/06/05 03:52:14;;;;;;;13.65;7.13;;;;;;;21.45;71.11;99722.56;3140023;28;20059;-63
2022/06/05 03:53:47;;;;;;;9.80;6.78;;;;;;;21.52;71.12;99717.53;3140325;28;20048;-63
2022/06/05 03:55:27;;;;;;;11.80;6.85;;;;;;;21.53;70.95;99724.50;3140099;28;20080;-63
2022/06/05 03:56:59;;;;;;;11.60;6.78;;;;;;;21.56;70.50;99722.41;3133570;28;20438;-63
2022/06/05 03:58:31;;;;;;;9.65;6.38;;;;;;;21.59;70.74;99723.91;3139982;28;20055;-64
2022/06/05 04:00:07;;;;;;;9.95;6.40;;;;;;;21.62;70.45;99718.34;3139536;28;20067;-63
2022/06/05 04:01:40;;;;;;;17.17;7.35;;;;;;;21.70;70.41;99722.94;3139931;28;20056;-62
2022/06/05 04:03:12;;;;;;;9.38;6.55;;;;;;;21.73;70.25;99722.66;3140131;28;20600;-62
2022/06/05 04:04:44;;;;;;;12.40;6.70;;;;;;;21.78;70.05;99720.41;3140245;28;20540;-64
2022/06/05 04:06:17;;;;;;;11.65;7.25;;;;;;;21.74;69.93;99701.31;3140431;28;20056;-63
2022/06/05 04:07:50;;;;;;;11.23;7.18;;;;;;;21.85;69.91;99702.94;3133763;28;20056;-63
2022/06/05 04:09:22;;;;;;;9.82;7.18;;;;;;;21.85;70.05;99710.91;3140023;28;20052;-63
2022/06/05 04:10:55;;;;;;;12.13;7.03;;;;;;;21.92;69.59;99708.53;3140204;28;20049;-63
2022/06/05 04:12:28;;;;;;;11.25;6.93;;;;;;;21.93;69.37;99702.25;3139896;28;20052;-62
2022/06/05 04:14:00;;;;;;;10.25;6.28;;;;;;;21.97;69.27;99699.13;3140474;28;20151;-62
2022/06/05 04:15:37;;;;;;;12.30;7.43;;;;;;;22.02;69.48;99699.53;3140007;28;20102;-63
2022/06/05 04:17:12;;;;;;;10.13;6.32;;;;;;;22.05;69.30;99709.03;3140104;28;20079;-62
2022/06/05 04:18:45;;;;;;;13.80;6.35;;;;;;;22.11;68.87;99712.94;3140369;28;20083;-63
2022/06/05 04:20:17;;;;;;;8.88;6.25;;;;;;;22.15;68.58;99720.44;3139618;28;20052;-64
2022/06/05 04:21:50;;;;;;;10.77;6.35;;;;;;;22.17;68.44;99715.03;3140176;28;20054;-63
2022/06/05 04:23:22;;;;;;;13.73;6.40;;;;;;;22.16;68.14;99719.47;3140284;28;20053;-63
2022/06/05 04:24:54;;;;;;;12.20;7.07;;;;;;;22.18;68.19;99724.63;3140185;28;20102;-63
2022/06/05 04:26:29;;;;;;;13.85;6.43;;;;;;;22.19;68.02;99721.84;3140269;28;20565;-64
2022/06/05 04:28:01;;;;;;;17.05;6.47;;;;;;;22.22;67.59;99716.25;3133464;28;20065;-63
2022/06/05 04:29:34;;;;;;;10.27;6.35;;;;;;;22.26;67.66;99719.44;3139925;28;20051;-63
2022/06/05 04:31:15;;;;;;;13.95;6.45;;;;;;;22.25;67.56;99715.13;3140517;28;20052;-63
2022/06/05 04:32:50;;;;;;;9.60;6.70;;;;;;;22.29;67.63;99719.16;3140057;28;20052;-63
2022/06/05 04:34:23;;;;;;;13.02;7.40;;;;;;;22.32;67.48;99713.56;3138820;28;20059;-63
2022/06/05 04:35:56;;;;;;;13.68;6.53;;;;;;;22.35;67.13;99709.78;3138023;28;20094;-62
2022/06/05 04:37:28;;;;;;;17.95;7.40;;;;;;;22.39;67.24;99704.03;3140305;28;20420;-62
2022/06/05 04:39:00;;;;;;;13.43;6.07;;;;;;;22.41;66.77;99702.06;3140337;28;20056;-62
2022/06/05 04:40:32;;;;;;;13.25;6.35;;;;;;;22.43;67.00;99697.44;3139560;28;20044;-63
2022/06/05 04:42:04;;;;;;;11.60;6.45;;;;;;;22.45;66.58;99703.44;3139377;28;20071;-62
2022/06/05 04:43:42;;;;;;;17.50;7.32;;;;;;;22.46;66.72;99706.94;3135751;28;20048;-63
2022/06/05 04:45:14;;;;;;;9.80;6.78;;;;;;;22.48;66.43;99707.63;3140005;28;20075;-62
2022/06/05 04:46:46;;;;;;;16.10;7.75;;;;;;;22.49;66.46;99702.16;3140008;28;20048;-65
2022/06/05 04:48:20;;;;;;;17.07;7.13;;;;;;;22.49;66.44;99704.81;3140147;28;20048;-62
2022/06/05 04:49:52;;;;;;;11.90;6.85;;;;;;;22.51;66.44;99698.50;3140216;28;20307;-62
2022/06/05 04:51:25;;;;;;;9.02;6.20;;;;;;;22.53;65.99;99707.16;3139952;28;20498;-62
2022/06/05 04:52:57;;;;;;;10.52;6.32;;;;;;;22.55;65.98;99713.19;3139584;28;20127;-63
2022/06/05 04:54:29;;;;;;;15.57;6.97;;;;;;;22.55;66.37;99703.38;3139809;28;20226;-64
2022/06/05 04:56:04;;;;;;;11.02;7.13;;;;;;;22.58;66.14;99703.09;3140066;28;20052;-62
2022/06/05 04:57:36;;;;;;;11.45;7.22;;;;;;;22.59;65.92;99695.97;3140055;28;20156;-63
2022/06/05 04:59:08;;;;;;;9.13;7.20;;;;;;;22.50;65.81;99676.44;3139773;28;20117;-63
2022/06/05 05:00:40;;;;;;;13.18;7.20;;;;;;;22.59;65.61;99693.31;3137389;28;20060;-61
2022/06/05 05:02:12;;;;;;;11.32;7.20;;;;;;;22.57;65.85;99690.81;3139554;28;20529;-60
2022/06/05 05:03:46;;;;;;;14.02;6.68;;;;;;;22.48;65.41;99668.66;3139683;28;20052;-63
2022/06/05 05:05:18;;;;;;;15.55;6.57;;;;;;;22.57;65.55;99679.34;3139813;28;20514;-64
2022/06/05 05:06:49;;;;;;;9.80;6.95;;;;;;;22.57;65.19;99680.19;3139848;28;20436;-61
2022/06/05 05:08:21;;;;;;;11.93;6.85;;;;;;;22.60;65.00;99681.72;3139684;28;20053;-62
2022/06/05 05:09:53;;;;;;;10.10;6.28;;;;;;;22.61;64.92;99680.72;3140030;28;20068;-59
2022/06/05 05:11:26;;;;;;;17.17;6.75;;;;;;;22.68;64.99;99684.44;3133925;28;20059;-60
2022/06/05 05:13:16;;;;;;;10.02;6.60;;;;;;;22.73;65.00;99687.50;3137079;28;20080;-59
2022/06/05 05:14:48;;;;;;;22.20;12.52;;;;;;;22.78;64.81;99689.72;3138845;28;20052;-60
2022/06/05 05:16:21;;;;;;;35.92;17.08;;;;;;;22.86;64.76;99693.25;3141142;28;20071;-61
2022/06/05 05:17:53;;;;;;;47.73;33.23;;;;;;;22.92;64.73;99692.69;3141611;28;20067;-62
2022/06/05 05:19:26;;;;;;;12.73;8.38;;;;;;;22.98;64.57;99688.59;3141767;28;20379;-60
2022/06/05 05:21:05;;;;;;;10.93;6.90;;;;;;;23.07;64.12;99686.84;3141945;28;20075;-61
2022/06/05 05:22:38;;;;;;;11.13;6.43;;;;;;;23.10;63.78;99684.75;3141710;28;20056;-61
2022/06/05 05:24:09;;;;;;;9.90;6.45;;;;;;;23.16;63.77;99685.94;3141707;28;20139;-61
2022/06/05 05:25:41;;;;;;;14.23;6.97;;;;;;;23.23;63.82;99676.38;3141812;28;20052;-60
2022/06/05 05:27:13;;;;;;;10.63;6.57;;;;;;;23.25;63.64;99671.75;3141781;28;20057;-60
2022/06/05 05:28:46;;;;;;;14.40;6.68;;;;;;;23.27;63.59;99664.44;3142009;28;20106;-60
2022/06/05 05:30:18;;;;;;;13.80;7.25;;;;;;;23.32;63.34;99674.63;3141921;28;20084;-60
2022/06/05 05:31:50;;;;;;;36.72;20.95;;;;;;;23.33;63.24;99674.44;3145925;28;20733;-60
2022/06/05 05:33:22;;;;;;;14.50;9.38;;;;;;;23.38;63.00;99677.47;3141701;28;20143;-61
2022/06/05 05:34:56;;;;;;;27.40;17.70;;;;;;;23.46;62.24;99668.75;3141295;28;20612;-60
2022/06/05 05:36:29;;;;;;;14.38;8.50;;;;;;;23.54;61.97;99670.59;3141536;28;20127;-60
2022/06/05 05:38:01;;;;;;;13.52;10.32;;;;;;;23.61;61.85;99677.81;3142072;28;20135;-60
2022/06/05 05:42:06;;;;;;;28.05;19.40;;;;;;;23.81;61.09;99674.97;3141728;28;20084;-59
2022/06/05 05:43:37;;;;;;;;;;;;;;;23.88;60.24;99672.53;3125147;28;20101;-60
2022/06/05 05:45:10;;;;;;;16.60;6.60;;;;;;;23.92;60.07;99668.53;3140490;28;19989;-60
2022/06/05 05:46:42;;;;;;;8.38;5.65;;;;;;;24.01;60.36;99667.59;3141481;28;20052;-60
2022/06/05 05:48:14;;;;;;;8.85;6.05;;;;;;;24.04;60.16;99672.59;3141591;28;20049;-61
2022/06/05 05:49:46;;;;;;;11.32;6.53;;;;;;;24.07;59.98;99669.63;3141894;28;20102;-60
2022/06/05 05:51:19;;;;;;;13.15;6.05;;;;;;;24.14;60.27;99667.16;3141441;28;20052;-62
2022/06/05 05:52:51;;;;;;;12.25;6.07;;;;;;;24.19;59.78;99667.50;3141582;28;20810;-63
2022/06/05 05:54:23;;;;;;;10.50;6.38;;;;;;;24.26;60.07;99669.38;3141282;28;20654;-62
2022/06/05 05:55:55;;;;;;;8.40;6.10;;;;;;;24.37;59.81;99678.88;3141556;28;20588;-62
2022/06/05 05:57:27;;;;;;;12.20;7.03;;;;;;;24.44;59.36;99671.97;3141549;28;20056;-61
2022/06/05 05:58:58;;;;;;;11.23;6.68;;;;;;;24.52;59.62;99671.13;3141521;28;20048;-62
2022/06/05 06:00:30;;;;;;;13.73;6.55;;;;;;;24.57;59.41;99674.16;3139426;28;20080;-61
2022/06/05 06:02:02;;;;;;;13.68;6.75;;;;;;;24.65;59.15;99682.16;3141399;28;20083;-61
2022/06/05 06:03:34;;;;;;;13.05;6.50;;;;;;;24.70;59.26;99679.84;3139076;28;20056;-66
2022/06/05 06:05:08;;;;;;;13.17;6.70;;;;;;;24.76;59.04;99678.38;3141515;28;20606;-66
2022/06/05 06:06:44;;;;;;;14.90;6.88;;;;;;;24.85;58.47;99684.56;3141168;28;20357;-64
2022/06/05 06:08:15;;;;;;;15.55;6.53;;;;;;;24.90;58.33;99685.69;3141030;28;20048;-63
2022/06/05 06:09:48;;;;;;;15.18;7.25;;;;;;;24.95;58.27;99672.72;3141376;28;20571;-62
2022/06/05 06:11:20;;;;;;;15.07;6.97;;;;;;;25.00;58.13;99674.91;3141624;28;20052;-61
2022/06/05 06:12:51;;;;;;;12.02;6.65;;;;;;;25.06;58.06;99673.41;3141301;28;20056;-64
2022/06/05 06:14:24;;;;;;;14.25;6.43;;;;;;;25.13;57.57;99669.06;3141407;28;20533;-62
2022/06/05 06:15:56;;;;;;;15.95;6.35;;;;;;;25.16;57.42;99656.28;3137744;28;20056;-61
2022/06/05 06:17:28;;;;;;;10.15;5.28;;;;;;;25.23;56.76;99666.25;3141447;28;20044;-61
2022/06/05 06:19:00;;;;;;;10.07;5.53;;;;;;;25.28;56.59;99662.09;3140990;28;20163;-61
2022/06/05 06:20:32;;;;;;;15.63;5.85;;;;;;;25.39;56.52;99671.59;3140897;28;20048;-62
2022/06/05 06:22:05;;;;;;;9.07;5.85;;;;;;;25.45;55.56;99665.59;3141100;28;20192;-62
2022/06/05 06:23:36;;;;;;;13.00;6.10;;;;;;;25.51;55.19;99672.91;3141465;28;20052;-62
2022/06/05 06:25:11;;;;;;;10.00;5.22;;;;;;;25.59;54.83;99664.09;3141007;28;20139;-62
2022/06/05 06:26:43;;;;;;;12.98;5.50;;;;;;;25.65;54.96;99664.22;3141175;28;20108;-62
2022/06/05 06:28:15;;;;;;;11.75;5.25;;;;;;;25.70;54.34;99661.03;3140325;28;20105;-61
2022/06/05 06:29:47;;;;;;;7.28;5.18;;;;;;;25.71;54.11;99664.56;3141287;28;20178;-63
2022/06/05 06:31:19;;;;;;;11.40;5.60;;;;;;;25.73;54.48;99649.19;3144513;28;20238;-62
2022/06/05 06:32:51;;;;;;;9.05;6.35;;;;;;;25.76;54.28;99648.84;3141053;28;20052;-62
2022/06/05 06:34:23;;;;;;;8.85;5.88;;;;;;;25.79;54.17;99649.38;3140270;28;20059;-62
2022/06/05 06:35:55;;;;;;;15.18;5.95;;;;;;;25.83;54.14;99652.56;3140941;28;20440;-62
2022/06/05 06:37:28;;;;;;;9.75;5.93;;;;;;;25.90;54.58;99642.84;3141057;28;20052;-62
2022/06/05 06:39:00;;;;;;;;;;;;;;;25.91;53.99;99644.53;3141424;28;20044;-61
2022/06/05 06:40:34;;;;;;;10.38;5.10;;;;;;;25.94;54.47;99646.84;3141234;28;19924;-62
2022/06/05 06:42:06;;;;;;;10.75;5.28;;;;;;;26.04;54.16;99647.47;3140858;28;20519;-62
2022/06/05 06:43:39;;;;;;;8.32;5.80;;;;;;;26.12;54.50;99649.28;3141054;28;20059;-62
2022/06/05 06:45:12;;;;;;;11.57;6.18;;;;;;;26.21;53.97;99650.91;3140956;28;20655;-62
2022/06/05 06:46:44;;;;;;;11.93;5.72;;;;;;;26.33;54.05;99643.34;3141106;28;20886;-62
2022/06/05 06:48:16;;;;;;;9.77;5.75;;;;;;;26.44;53.71;99642.09;3140748;28;20051;-62
2022/06/05 06:49:48;;;;;;;12.23;6.07;;;;;;;26.52;53.52;99645.59;3140918;28;20145;-61
2022/06/05 06:51:20;;;;;;;8.75;5.40;;;;;;;26.59;52.87;99644.88;3134581;28;20052;-62
2022/06/05 06:52:53;;;;;;;8.68;5.50;;;;;;;26.67;52.56;99643.00;3141043;28;20499;-62
2022/06/05 06:54:25;;;;;;;;;;;;;;;26.69;52.63;99637.50;3141277;28;20235;-62
2022/06/05 06:55:57;;;;;;;7.65;5.30;;;;;;;26.74;51.71;99646.63;3140779;28;19931;-62
2022/06/05 06:57:29;;;;;;;13.57;6.00;;;;;;;26.74;51.39;99633.28;3140863;28;20060;-62
2022/06/05 06:59:03;;;;;;;11.02;6.05;;;;;;;26.82;51.11;99634.22;3141095;28;20045;-62
2022/06/05 07:00:35;;;;;;;8.55;6.15;;;;;;;26.91;51.43;99627.78;3138370;28;20048;-62
2022/06/05 07:02:07;;;;;;;8.60;5.72;;;;;;;26.98;51.45;99639.44;3140266;28;20052;-62
2022/06/05 07:03:40;;;;;;;14.00;5.88;;;;;;;27.07;51.30;99627.69;3142350;28;20051;-62
2022/06/05 07:05:12;;;;;;;10.80;6.70;;;;;;;27.07;51.19;99616.16;3138313;28;20791;-62
2022/06/05 07:06:44;;;;;;;9.55;6.30;;;;;;;27.18;50.90;99627.28;3140820;28;20060;-62
2022/06/05 07:08:18;;;;;;;10.70;6.10;;;;;;;27.27;50.83;99625.34;3140750;28;20144;-62
2022/06/05 07:09:49;;;;;;;;;;;;;;;27.36;50.55;99631.44;3141299;28;20052;-61
2022/06/05 07:11:22;;;;;;;10.02;6.10;;;;;;;27.40;50.36;99616.72;3140748;28;20353;-60
2022/06/05 07:12:53;;;;;;;17.40;6.30;;;;;;;27.51;50.66;99623.44;3140441;28;20059;-61
2022/06/05 07:14:26;;;;;;;16.90;5.85;;;;;;;27.64;49.96;99619.13;3140484;28;20052;-62
2022/06/05 07:15:57;;;;;;;15.20;6.28;;;;;;;27.74;50.12;99618.84;3140996;28;20063;-62
2022/06/05 07:17:30;;;;;;;14.65;6.40;;;;;;;27.85;49.74;99625.63;3140471;28;20106;-61
2022/06/05 07:19:01;;;;;;;13.45;5.82;;;;;;;27.97;49.47;99623.28;3139796;28;20053;-61
2022/06/05 07:20:34;;;;;;;11.32;5.53;;;;;;;28.06;49.45;99622.19;3140476;28;20055;-61
2022/06/05 07:22:06;;;;;;;15.93;5.93;;;;;;;28.12;48.84;99610.72;3140609;28;20595;-61
2022/06/05 07:23:39;;;;;;;13.30;5.70;;;;;;;28.25;48.65;99616.25;3140653;28;20061;-61
2022/06/05 07:25:12;;;;;;;12.15;5.68;;;;;;;28.32;48.21;99622.50;3140395;28;20060;-61
2022/06/05 07:26:44;;;;;;;10.57;5.35;;;;;;;28.41;47.98;99614.34;3140626;28;20126;-61
2022/06/05 07:28:16;;;;;;;13.57;6.13;;;;;;;28.48;47.83;99617.94;3140486;28;20097;-61
2022/06/05 07:29:48;;;;;;;12.02;6.07;;;;;;;28.55;48.07;99616.19;3138537;28;20060;-61